Time;durP1;ratioP1;P1;durP2;ratioP2;P2;SDS_P1;SDS_P2;PMS_P1;PMS_P2;Temp;Humidity;BMP_temperature;BMP_pressure;BME280_temperature;BME280_humidity;BME280_pressure;Samples;Min_cycle;Max_cycle;Signal;HPM_P1;HPM_P2
2022/03/17 00:00:15;;;;;;;22.95;20.63;;;6.70;99.90;;;;;;5032260;28;20317;-79
2022/03/17 00:02:45;;;;;;;24.80;22.02;;;6.70;99.90;;;;;;5033540;28;20230;-80
2022/03/17 00:05:14;;;;;;;22.92;20.48;;;6.60;99.90;;;;;;5032635;28;20297;-80
2022/03/17 00:07:44;;;;;;;27.15;23.30;;;6.60;99.90;;;;;;5032754;28;20199;-79
2022/03/17 00:10:16;;;;;;;27.92;22.58;;;6.60;99.90;;;;;;5032312;28;20233;-79
2022/03/17 00:12:45;;;;;;;27.05;21.50;;;6.60;99.90;;;;;;5032873;28;20289;-79
2022/03/17 00:15:14;;;;;;;24.70;21.65;;;6.60;99.90;;;;;;5032705;28;20230;-79
2022/03/17 00:17:42;;;;;;;26.85;23.00;;;6.60;99.90;;;;;;5032768;28;20206;-79
2022/03/17 00:20:13;;;;;;;22.40;20.08;;;6.60;99.90;;;;;;5032581;28;20326;-79
2022/03/17 00:22:42;;;;;;;27.35;21.02;;;6.50;99.90;;;;;;5032649;28;20299;-80
2022/03/17 00:25:12;;;;;;;24.00;21.50;;;6.50;99.90;;;;;;5032499;28;20245;-79
2022/03/17 00:27:40;;;;;;;22.75;20.45;;;6.50;99.90;;;;;;5032860;28;20226;-79
2022/03/17 00:30:09;;;;;;;29.80;22.45;;;6.50;99.90;;;;;;5032526;28;20229;-79
2022/03/17 00:32:38;;;;;;;28.70;22.60;;;6.50;99.90;;;;;;5032271;28;20232;-79
2022/03/17 00:37:55;;;;;;;26.83;22.98;;;6.50;99.90;;;;;;5032126;28;20237;-79
2022/03/17 00:40:23;;;;;;;33.13;22.88;;;6.50;99.90;;;;;;5032139;28;20226;-79
2022/03/17 00:42:53;;;;;;;26.67;22.85;;;6.40;99.90;;;;;;5032542;28;20211;-79
2022/03/17 00:45:21;;;;;;;23.90;21.27;;;6.40;99.90;;;;;;5032647;28;20297;-79
2022/03/17 00:47:50;;;;;;;28.52;21.23;;;6.30;99.90;;;;;;5031936;28;20270;-79
2022/03/17 00:50:19;;;;;;;24.70;22.05;;;6.30;99.90;;;;;;5031865;28;20229;-79
2022/03/17 00:52:47;;;;;;;25.67;22.92;;;6.30;99.90;;;;;;5032198;28;20300;-79
2022/03/17 00:55:17;;;;;;;26.40;22.88;;;6.30;99.90;;;;;;5032275;28;20293;-79
2022/03/17 00:57:45;;;;;;;24.48;21.92;;;6.20;99.90;;;;;;5032584;28;20237;-79
2022/03/17 01:00:15;;;;;;;29.70;22.92;;;6.20;99.90;;;;;;5031692;28;20250;-79
2022/03/17 01:02:44;;;;;;;27.55;22.55;;;6.10;99.90;;;;;;5033407;28;20225;-79
2022/03/17 01:05:13;;;;;;;26.70;23.10;;;6.10;99.90;;;;;;5032607;28;20229;-79
2022/03/17 01:07:42;;;;;;;26.88;22.40;;;6.10;99.90;;;;;;5032000;28;20206;-79
2022/03/17 01:10:15;;;;;;;27.13;22.30;;;6.10;99.90;;;;;;5031999;28;20252;-79
2022/03/17 01:12:47;;;;;;;27.88;24.10;;;6.00;99.90;;;;;;5032223;28;20233;-79
2022/03/17 01:15:16;;;;;;;26.67;21.13;;;6.00;99.90;;;;;;5031687;28;20210;-80
2022/03/17 01:17:44;;;;;;;28.88;25.25;;;6.00;99.90;;;;;;5032091;28;20286;-79
2022/03/17 01:20:13;;;;;;;28.13;23.27;;;6.00;99.90;;;;;;5032397;28;20261;-79
2022/03/17 01:22:42;;;;;;;24.50;21.90;;;6.00;99.90;;;;;;5033675;28;20280;-79
2022/03/17 01:25:10;;;;;;;28.77;24.45;;;6.00;99.90;;;;;;5031725;28;20237;-79
2022/03/17 01:27:38;;;;;;;36.10;23.05;;;5.90;99.90;;;;;;5031793;28;20302;-79
2022/03/17 01:30:10;;;;;;;25.20;22.50;;;5.90;99.90;;;;;;5031383;28;20230;-82
2022/03/17 01:32:39;;;;;;;25.52;22.80;;;5.90;99.90;;;;;;5032331;28;20222;-82
2022/03/17 01:35:09;;;;;;;24.20;21.67;;;5.90;99.90;;;;;;5031847;28;20241;-81
2022/03/17 01:37:38;;;;;;;25.63;21.77;;;5.90;99.90;;;;;;5032886;28;20249;-82
2022/03/17 01:40:07;;;;;;;27.42;23.90;;;5.90;99.90;;;;;;5035268;28;20250;-79
2022/03/17 01:42:36;;;;;;;25.58;21.52;;;5.90;99.90;;;;;;5034803;28;20294;-79
2022/03/17 01:45:06;;;;;;;24.25;21.65;;;5.80;99.90;;;;;;5035294;28;20291;-79
2022/03/17 01:47:36;;;;;;;28.67;21.95;;;5.80;99.90;;;;;;5035229;28;20237;-82
2022/03/17 01:50:08;;;;;;;30.88;22.25;;;5.80;99.90;;;;;;5035304;28;20233;-82
2022/03/17 01:52:38;;;;;;;26.23;23.48;;;5.70;99.90;;;;;;5034371;28;20261;-79
2022/03/17 01:55:09;;;;;;;28.13;23.02;;;5.80;99.90;;;;;;5034933;28;20209;-79
2022/03/17 01:57:38;;;;;;;39.55;23.17;;;5.70;99.90;;;;;;5035760;28;20206;-79
2022/03/17 02:00:09;;;;;;;22.45;20.17;;;5.50;99.90;;;;;;5035013;28;20253;-79
2022/03/17 02:02:39;;;;;;;23.27;20.63;;;5.50;99.90;;;;;;5035325;28;20237;-81
2022/03/17 02:05:08;;;;;;;23.55;21.08;;;5.50;99.90;;;;;;5035220;28;20272;-82
2022/03/17 02:07:37;;;;;;;22.27;19.98;;;5.50;99.90;;;;;;5034844;28;20210;-81
2022/03/17 02:10:06;;;;;;;27.08;22.48;;;5.40;99.90;;;;;;5035161;28;20280;-82
2022/03/17 02:15:20;;;;;;;23.90;20.13;;;5.30;99.90;;;;;;5034426;28;20233;-79
2022/03/17 02:17:50;;;;;;;25.23;21.95;;;5.30;99.90;;;;;;5034722;28;20302;-79
2022/03/17 02:20:18;;;;;;;25.50;22.63;;;5.30;99.90;;;;;;5034838;28;20238;-79
2022/03/17 02:22:48;;;;;;;26.63;21.77;;;5.30;99.90;;;;;;5034511;28;20286;-81
2022/03/17 02:25:35;;;;;;;25.67;21.17;;;5.30;99.90;;;;;;5034773;28;20225;-81
2022/03/17 02:28:05;;;;;;;24.05;20.08;;;5.30;99.90;;;;;;5034413;28;20233;-82
2022/03/17 02:30:37;;;;;;;24.13;21.65;;;5.20;99.90;;;;;;5034136;28;20230;-81
2022/03/17 02:33:07;;;;;;;26.10;21.33;;;5.20;99.90;;;;;;5034926;28;20245;-82
2022/03/17 02:35:37;;;;;;;25.25;22.63;;;5.20;99.90;;;;;;5034300;28;20207;-82
2022/03/17 02:38:07;;;;;;;27.08;22.55;;;5.20;99.90;;;;;;5034799;28;20226;-79
2022/03/17 02:40:38;;;;;;;28.05;22.08;;;5.20;99.90;;;;;;5033920;28;20230;-79
2022/03/17 02:43:07;;;;;;;26.75;22.77;;;5.10;99.90;;;;;;5034485;28;20238;-78
2022/03/17 02:45:36;;;;;;;26.10;20.80;;;5.10;99.90;;;;;;5034235;28;20210;-79
2022/03/17 02:48:05;;;;;;;24.75;22.15;;;5.20;99.90;;;;;;5034594;28;20236;-81
2022/03/17 02:50:34;;;;;;;24.73;22.00;;;5.10;99.90;;;;;;5033200;28;20245;-79
2022/03/17 02:53:06;;;;;;;22.63;20.30;;;5.10;99.90;;;;;;5034599;28;20219;-79
2022/03/17 02:55:37;;;;;;;27.13;22.20;;;5.10;99.90;;;;;;5033967;28;20237;-79
2022/03/17 02:58:06;;;;;;;22.50;20.23;;;5.00;99.90;;;;;;5034031;28;20237;-79
2022/03/17 03:00:35;;;;;;;23.30;20.42;;;5.00;99.90;;;;;;5033988;28;20310;-79
2022/03/17 03:03:06;;;;;;;36.83;22.60;;;5.00;99.90;;;;;;5034029;28;20205;-79
2022/03/17 03:05:34;;;;;;;26.35;22.30;;;5.00;99.90;;;;;;5034147;28;20207;-79
2022/03/17 03:08:03;;;;;;;24.30;21.73;;;5.00;99.90;;;;;;5033972;28;20323;-79
2022/03/17 03:10:32;;;;;;;24.33;21.70;;;5.00;99.90;;;;;;5033371;28;20306;-79
2022/03/17 03:13:03;;;;;;;26.55;23.77;;;4.90;99.90;;;;;;5016310;28;20260;-79
2022/03/17 03:15:31;;;;;;;25.42;22.67;;;4.90;99.90;;;;;;5033672;28;20285;-79
2022/03/17 03:18:00;;;;;;;26.42;21.73;;;4.80;99.90;;;;;;5033497;28;20234;-78
2022/03/17 03:20:29;;;;;;;30.50;22.85;;;4.80;99.90;;;;;;5033347;28;20234;-79
2022/03/17 03:22:58;;;;;;;32.38;23.85;;;4.80;99.90;;;;;;5033343;28;20358;-79
2022/03/17 03:25:26;;;;;;;22.10;19.92;;;4.80;99.90;;;;;;5033408;28;20206;-79
2022/03/17 03:27:54;;;;;;;26.83;22.88;;;4.70;99.90;;;;;;5033243;28;20262;-79
2022/03/17 03:30:25;;;;;;;26.08;22.23;;;4.70;99.90;;;;;;5033408;28;20297;-79
2022/03/17 03:32:53;;;;;;;24.88;22.33;;;4.80;99.90;;;;;;5033226;28;20292;-79
2022/03/17 03:38:08;;;;;;;24.05;21.45;;;4.80;99.90;;;;;;5032920;28;20255;-79
2022/03/17 03:40:36;;;;;;;30.08;23.13;;;4.80;99.90;;;;;;5032815;28;20277;-79
2022/03/17 03:43:04;;;;;;;28.42;23.92;;;4.90;99.90;;;;;;5033128;28;20210;-79
2022/03/17 03:45:34;;;;;;;31.83;24.67;;;4.90;99.90;;;;;;5033478;28;20297;-79
2022/03/17 03:48:02;;;;;;;27.90;23.42;;;4.80;99.90;;;;;;5032412;28;20306;-79
2022/03/17 03:50:31;;;;;;;27.88;23.77;;;4.90;99.90;;;;;;5032786;28;20242;-78
2022/03/17 03:52:59;;;;;;;24.98;22.20;;;4.90;99.90;;;;;;5032518;28;20282;-79
2022/03/17 03:55:27;;;;;;;28.70;24.13;;;4.90;99.90;;;;;;5033061;28;20240;-79
2022/03/17 03:57:58;;;;;;;24.58;21.95;;;4.90;99.90;;;;;;5033167;28;20339;-80
2022/03/17 04:00:33;;;;;;;30.38;24.10;;;4.90;99.90;;;;;;5032404;28;20302;-79
2022/03/17 04:03:04;;;;;;;26.20;23.52;;;4.90;99.90;;;;;;5032628;28;20206;-79
2022/03/17 04:05:34;;;;;;;25.38;22.75;;;4.90;99.90;;;;;;5032597;28;20218;-79
2022/03/17 04:08:03;;;;;;;26.73;23.10;;;4.90;99.90;;;;;;5032862;28;20219;-79
2022/03/17 04:10:32;;;;;;;24.15;21.73;;;4.90;99.90;;;;;;5032907;28;20280;-79
2022/03/17 04:13:01;;;;;;;27.00;23.95;;;4.90;99.90;;;;;;5032942;28;20206;-79
2022/03/17 04:15:29;;;;;;;33.35;24.85;;;4.90;99.90;;;;;;5032503;28;20214;-79
2022/03/17 04:17:58;;;;;;;23.90;21.38;;;4.90;99.90;;;;;;5032483;28;20272;-79
2022/03/17 04:20:28;;;;;;;28.55;21.98;;;4.90;99.90;;;;;;5032281;28;20253;-79
2022/03/17 04:22:56;;;;;;;23.98;21.45;;;4.80;99.90;;;;;;5032617;28;20293;-79
2022/03/17 04:25:24;;;;;;;24.10;21.48;;;4.80;99.90;;;;;;5032438;28;20293;-79
2022/03/17 04:27:53;;;;;;;22.40;20.08;;;4.80;99.90;;;;;;5032551;28;20238;-79
2022/03/17 04:30:21;;;;;;;27.42;21.33;;;4.80;99.90;;;;;;5032049;28;20255;-79
2022/03/17 04:32:49;;;;;;;21.85;19.33;;;4.80;99.90;;;;;;5032404;28;20206;-79
2022/03/17 04:35:18;;;;;;;22.13;19.90;;;4.70;99.90;;;;;;5032021;28;20233;-79
2022/03/17 04:37:48;;;;;;;25.92;21.83;;;4.70;99.90;;;;;;5032802;28;20285;-79
2022/03/17 04:40:16;;;;;;;23.40;20.92;;;4.70;99.90;;;;;;5032410;28;20240;-79
2022/03/17 04:42:44;;;;;;;25.15;22.67;;;4.70;99.90;;;;;;5031779;28;20314;-79
2022/03/17 04:45:12;;;;;;;27.23;24.33;;;4.70;99.90;;;;;;5031992;28;20293;-79
2022/03/17 04:47:41;;;;;;;27.75;24.50;;;4.70;99.90;;;;;;5032111;28;20241;-79
2022/03/17 04:50:11;;;;;;;24.30;21.70;;;4.70;99.90;;;;;;5032067;28;20237;-80
2022/03/17 04:55:26;;;;;;;24.48;21.88;;;4.70;99.90;;;;;;5032148;28;20241;-79
2022/03/17 04:57:54;;;;;;;21.13;18.98;;;4.70;99.90;;;;;;5032735;28;20226;-79
2022/03/17 05:00:23;;;;;;;22.83;20.48;;;4.70;99.90;;;;;;5032290;28;20312;-79
2022/03/17 05:02:51;;;;;;;24.10;21.60;;;4.70;99.90;;;;;;5031804;28;20250;-79
2022/03/17 05:05:19;;;;;;;25.80;23.08;;;4.70;99.90;;;;;;5032272;28;20210;-79
2022/03/17 05:07:48;;;;;;;25.15;22.55;;;4.70;99.90;;;;;;5032222;28;20268;-79
2022/03/17 05:10:16;;;;;;;28.92;24.67;;;4.70;99.90;;;;;;5031889;28;20210;-79
2022/03/17 05:12:46;;;;;;;30.48;24.02;;;4.70;99.90;;;;;;5033068;28;20206;-79
2022/03/17 05:15:16;;;;;;;28.52;24.55;;;4.70;99.90;;;;;;5035882;28;20293;-79
2022/03/17 05:17:44;;;;;;;31.42;23.60;;;4.70;99.90;;;;;;5036969;28;20206;-79
2022/03/17 05:20:13;;;;;;;35.05;25.48;;;4.80;99.90;;;;;;5035531;28;20215;-78
2022/03/17 05:22:41;;;;;;;30.60;26.65;;;4.80;99.90;;;;;;5035403;28;20309;-79
2022/03/17 05:25:11;;;;;;;29.30;26.17;;;4.90;99.90;;;;;;5035433;28;20210;-79
2022/03/17 05:27:39;;;;;;;32.47;26.05;;;4.90;99.90;;;;;;5035466;28;20276;-79
2022/03/17 05:30:11;;;;;;;32.53;26.65;;;4.90;99.90;;;;;;5035936;28;20222;-79
2022/03/17 05:32:40;;;;;;;34.33;28.55;;;5.00;99.90;;;;;;5035817;28;20217;-80
2022/03/17 05:35:10;;;;;;;30.35;25.45;;;5.00;99.90;;;;;;5035237;28;20311;-79
2022/03/17 05:37:39;;;;;;;30.73;27.05;;;5.00;99.90;;;;;;5035471;28;20270;-79
2022/03/17 05:40:13;;;;;;;30.92;26.73;;;5.10;99.90;;;;;;5034991;28;20237;-79
2022/03/17 05:42:42;;;;;;;31.20;28.00;;;5.10;99.90;;;;;;5035325;28;20267;-79
2022/03/17 05:45:13;;;;;;;33.30;27.88;;;5.10;99.90;;;;;;5035542;28;20206;-79
2022/03/17 05:47:42;;;;;;;30.15;26.90;;;5.20;99.90;;;;;;5035283;28;20194;-79
2022/03/17 05:50:13;;;;;;;34.38;28.67;;;5.20;99.90;;;;;;5034544;28;20234;-79
2022/03/17 05:52:42;;;;;;;34.20;28.45;;;5.30;99.90;;;;;;5034938;28;20210;-79
2022/03/17 05:55:12;;;;;;;32.75;29.02;;;5.30;99.90;;;;;;5035289;28;20293;-80
2022/03/17 05:57:41;;;;;;;33.63;28.38;;;5.30;99.90;;;;;;5035443;28;20249;-79
2022/03/17 06:00:13;;;;;;;30.23;27.08;;;5.40;99.90;;;;;;5034987;28;20301;-80
2022/03/17 06:02:42;;;;;;;38.70;28.70;;;5.40;99.90;;;;;;5034707;28;20284;-79
2022/03/17 06:05:11;;;;;;;31.35;27.95;;;5.40;99.90;;;;;;5034855;28;20270;-79
2022/03/17 06:07:41;;;;;;;42.45;27.02;;;5.50;99.90;;;;;;5035085;28;20206;-79
2022/03/17 06:10:11;;;;;;;27.70;24.80;;;5.50;99.90;;;;;;5035065;28;20234;-79
2022/03/17 06:12:39;;;;;;;27.10;23.42;;;5.50;99.90;;;;;;5034568;28;20309;-79
2022/03/17 06:15:08;;;;;;;24.42;21.85;;;5.40;99.90;;;;;;5034612;28;20233;-79
2022/03/17 06:17:40;;;;;;;26.90;23.67;;;5.30;99.90;;;;;;5034737;28;20289;-79
2022/03/17 06:20:11;;;;;;;31.95;25.15;;;5.30;99.90;;;;;;5034715;28;20256;-79
2022/03/17 06:22:40;;;;;;;30.10;22.80;;;5.30;99.90;;;;;;5034572;28;20241;-79
2022/03/17 06:25:10;;;;;;;34.38;27.02;;;5.30;99.90;;;;;;5034334;28;20230;-80
2022/03/17 06:27:38;;;;;;;27.13;24.35;;;5.40;99.90;;;;;;5034750;28;20293;-79
2022/03/17 06:30:10;;;;;;;26.35;22.48;;;5.40;99.90;;;;;;5034483;28;20301;-80
2022/03/17 06:32:41;;;;;;;28.40;24.08;;;5.40;99.90;;;;;;5034537;28;20207;-79
2022/03/17 06:35:10;;;;;;;29.48;24.25;;;5.50;99.90;;;;;;5034515;28;20229;-80
2022/03/17 06:37:39;;;;;;;24.85;22.23;;;5.50;99.90;;;;;;5034310;28;20229;-81
2022/03/17 06:40:13;;;;;;;31.38;24.70;;;5.60;99.90;;;;;;5034236;28;20233;-80
2022/03/17 06:42:41;;;;;;;33.53;25.08;;;5.60;99.90;;;;;;5033924;28;20257;-80
2022/03/17 06:45:11;;;;;;;30.33;25.30;;;5.70;99.90;;;;;;5034448;28;20214;-80
2022/03/17 06:47:41;;;;;;;27.13;24.20;;;5.80;99.90;;;;;;5034260;28;20238;-80
2022/03/17 06:50:12;;;;;;;36.90;25.17;;;5.90;99.90;;;;;;5034496;28;20206;-80
2022/03/17 06:52:41;;;;;;;28.63;24.02;;;6.00;99.90;;;;;;5033848;28;20211;-80
2022/03/17 06:55:10;;;;;;;37.58;27.75;;;6.10;99.90;;;;;;5034020;28;20226;-80
2022/03/17 06:57:39;;;;;;;29.83;26.50;;;6.20;99.90;;;;;;5034323;28;20226;-79
2022/03/17 07:00:10;;;;;;;40.47;28.73;;;6.30;99.90;;;;;;5033721;28;20290;-79
2022/03/17 07:02:40;;;;;;;34.25;29.67;;;6.40;99.90;;;;;;5033479;28;20257;-80
2022/03/17 07:05:10;;;;;;;31.52;26.52;;;6.60;99.90;;;;;;5033860;28;20215;-81
2022/03/17 07:07:39;;;;;;;30.88;27.83;;;6.60;99.90;;;;;;5033699;28;20233;-82
2022/03/17 07:10:09;;;;;;;30.15;25.42;;;6.80;99.90;;;;;;5033752;28;20241;-82
2022/03/17 07:12:37;;;;;;;33.83;27.55;;;6.80;99.90;;;;;;5033784;28;20230;-81
2022/03/17 07:15:07;;;;;;;31.13;27.95;;;6.90;99.90;;;;;;5033804;28;20222;-82
2022/03/17 07:17:39;;;;;;;43.47;32.08;;;7.00;99.90;;;;;;5033660;28;20292;-82
2022/03/17 07:20:16;;;;;;;30.60;27.02;;;7.00;99.90;;;;;;5033134;28;20211;-83
2022/03/17 07:22:47;;;;;;;34.67;30.85;;;7.00;99.90;;;;;;5033488;28;20268;-81
2022/03/17 07:25:17;;;;;;;28.52;25.48;;;7.00;99.90;;;;;;5033483;28;20225;-83
2022/03/17 07:27:47;;;;;;;29.50;26.48;;;7.10;99.90;;;;;;5034289;28;20210;-84
2022/03/17 07:30:18;;;;;;;43.50;29.60;;;7.30;99.90;;;;;;5033869;28;20241;-83
2022/03/17 07:32:48;;;;;;;35.65;28.67;;;7.30;99.90;;;;;;5033000;28;20187;-81
2022/03/17 07:35:19;;;;;;;34.75;26.58;;;7.40;99.90;;;;;;5032534;28;20206;-81
2022/03/17 07:37:50;;;;;;;32.65;27.10;;;7.50;99.90;;;;;;5033206;28;20212;-82
2022/03/17 07:40:19;;;;;;;34.97;28.20;;;7.60;99.90;;;;;;5029718;28;20233;-80
2022/03/17 07:42:51;;;;;;;28.92;25.83;;;7.70;99.90;;;;;;5033444;28;20305;-82
2022/03/17 07:45:20;;;;;;;27.70;24.33;;;7.70;99.90;;;;;;5033583;28;20225;-82
2022/03/17 07:48:10;;;;;;;30.40;25.70;;;7.70;99.90;;;;;;5032156;28;20195;-82
2022/03/17 07:51:10;;;;;;;35.75;28.67;;;7.60;99.90;;;;;;5030334;28;20218;-81
2022/03/17 07:56:40;;;;;;;31.77;27.33;;;7.60;99.90;;;;;;5029248;28;20210;-84
2022/03/17 07:59:09;;;;;;;29.80;26.75;;;7.70;99.90;;;;;;5033950;28;20236;-84
2022/03/17 08:01:38;;;;;;;28.05;25.05;;;7.90;99.90;;;;;;5033107;28;20242;-84
2022/03/17 08:04:06;;;;;;;28.60;25.60;;;7.90;99.90;;;;;;5033554;28;20214;-83
2022/03/17 08:06:37;;;;;;;33.15;27.45;;;8.10;99.90;;;;;;5033561;28;20210;-81
2022/03/17 08:09:24;;;;;;;32.85;27.80;;;8.40;99.90;;;;;;5033740;28;20233;-83
2022/03/17 08:11:52;;;;;;;26.10;23.48;;;8.40;99.90;;;;;;5033063;28;20253;-82
2022/03/17 08:14:21;;;;;;;28.35;25.25;;;8.60;99.90;;;;;;5033986;28;20230;-84
2022/03/17 08:16:50;;;;;;;30.27;26.92;;;8.60;99.90;;;;;;5033492;28;20202;-83
2022/03/17 08:19:18;;;;;;;33.20;27.75;;;8.70;99.90;;;;;;5033761;28;20210;-83
2022/03/17 08:21:48;;;;;;;29.55;25.13;;;8.80;99.90;;;;;;5033275;28;20301;-83
2022/03/17 08:24:16;;;;;;;31.02;27.55;;;9.00;99.90;;;;;;5033153;28;20285;-82
2022/03/17 08:26:44;;;;;;;28.17;24.98;;;9.00;99.90;;;;;;5033134;28;20294;-83
2022/03/17 08:29:13;;;;;;;30.52;27.33;;;9.10;99.90;;;;;;5033706;28;20289;-81
2022/03/17 08:31:42;;;;;;;28.40;25.00;;;9.20;99.90;;;;;;5031657;28;20222;-82
2022/03/17 08:34:10;;;;;;;30.58;26.25;;;9.10;99.90;;;;;;5033749;28;20230;-81
2022/03/17 08:36:39;;;;;;;31.90;28.33;;;9.20;99.90;;;;;;5033011;28;20207;-81
2022/03/17 08:39:08;;;;;;;29.00;26.00;;;9.30;99.90;;;;;;5033215;28;20306;-79
2022/03/17 08:41:39;;;;;;;27.33;24.50;;;9.30;99.90;;;;;;5032831;28;20288;-82
2022/03/17 08:44:07;;;;;;;32.67;27.63;;;9.30;99.90;;;;;;5032681;28;20313;-81
2022/03/17 08:49:23;;;;;;;40.42;28.05;;;9.30;99.90;;;;;;5032716;28;20214;-78
2022/03/17 08:51:53;;;;;;;33.67;27.63;;;9.60;99.90;;;;;;5032822;28;20230;-79
2022/03/17 08:54:25;;;;;;;30.08;26.17;;;9.70;99.90;;;;;;5033718;28;20301;-78
2022/03/17 08:56:59;;;;;;;30.13;23.73;;;9.70;99.90;;;;;;5033182;28;20260;-77
2022/03/17 08:59:29;;;;;;;30.25;24.35;;;9.60;99.90;;;;;;5032790;28;20206;-80
2022/03/17 09:01:58;;;;;;;26.50;23.25;;;9.60;99.90;;;;;;5033003;28;20230;-79
2022/03/17 09:04:27;;;;;;;31.95;24.23;;;9.80;99.90;;;;;;5032357;28;20214;-79
2022/03/17 09:06:58;;;;;;;26.42;23.60;;;10.10;99.90;;;;;;5032599;28;20229;-79
2022/03/17 09:09:29;;;;;;;26.30;23.48;;;10.40;99.90;;;;;;5036037;28;20213;-78
2022/03/17 09:11:57;;;;;;;26.42;23.58;;;10.50;99.90;;;;;;5032646;28;20280;-79
2022/03/17 09:14:26;;;;;;;26.20;22.05;;;10.60;99.90;;;;;;5017365;28;20226;-78
2022/03/17 09:16:54;;;;;;;28.70;22.13;;;10.60;99.90;;;;;;5033126;28;20318;-78
2022/03/17 09:19:22;;;;;;;23.52;20.20;;;10.90;99.90;;;;;;5033239;28;20206;-79
2022/03/17 09:21:52;;;;;;;24.70;19.60;;;11.00;99.90;;;;;;5032826;28;20314;-78
2022/03/17 09:24:20;;;;;;;18.52;16.83;;;11.10;99.90;;;;;;5032411;28;20257;-79
2022/03/17 09:26:50;;;;;;;28.05;18.60;;;11.30;99.90;;;;;;5033211;28;20297;-80
2022/03/17 09:29:18;;;;;;;19.65;17.55;;;11.50;99.90;;;;;;5032789;28;20203;-80
2022/03/17 09:31:46;;;;;;;21.48;17.70;;;11.50;99.90;;;;;;5031527;28;20246;-80
2022/03/17 09:34:14;;;;;;;21.30;19.00;;;11.60;99.90;;;;;;5033015;28;20248;-80
2022/03/17 09:36:43;;;;;;;21.30;19.05;;;11.50;99.90;;;;;;5032529;28;20213;-81
2022/03/17 09:41:58;;;;;;;21.40;18.75;;;11.70;99.90;;;;;;5032048;28;20304;-80
2022/03/17 09:44:27;;;;;;;23.50;20.33;;;12.00;99.90;;;;;;5032071;28;20218;-80
2022/03/17 09:46:59;;;;;;;28.92;19.20;;;11.90;99.90;;;;;;5032468;28;20210;-80
2022/03/17 09:49:29;;;;;;;23.60;18.20;;;12.10;99.90;;;;;;5032440;28;20213;-80
2022/03/17 09:52:02;;;;;;;21.85;19.65;;;12.20;99.90;;;;;;5033265;28;20249;-80
2022/03/17 09:54:33;;;;;;;21.30;19.05;;;12.10;99.90;;;;;;5030330;28;20237;-80
2022/03/17 09:57:04;;;;;;;20.33;18.23;;;12.20;99.90;;;;;;5032503;28;20202;-80
2022/03/17 09:59:32;;;;;;;23.23;18.50;;;12.20;99.90;;;;;;5035104;28;20206;-80
2022/03/17 10:02:01;;;;;;;20.75;18.67;;;12.10;99.90;;;;;;5036105;28;20290;-80
2022/03/17 10:04:32;;;;;;;20.45;18.45;;;11.90;99.90;;;;;;5036117;28;20218;-80
2022/03/17 10:07:01;;;;;;;21.45;19.17;;;12.00;99.90;;;;;;5035909;28;20232;-80
2022/03/17 10:09:30;;;;;;;23.20;20.45;;;12.20;99.90;;;;;;5035785;28;20234;-80
2022/03/17 10:12:05;;;;;;;21.90;19.70;;;12.30;99.90;;;;;;5035585;28;20313;-80
2022/03/17 10:14:38;;;;;;;25.55;20.27;;;12.40;99.90;;;;;;5036053;28;20262;-80
2022/03/17 10:17:10;;;;;;;21.63;18.23;;;12.60;99.90;;;;;;5035415;28;20206;-80
2022/03/17 10:19:39;;;;;;;23.85;19.83;;;12.90;99.90;;;;;;5045905;28;20201;-80
2022/03/17 10:22:12;;;;;;;22.52;20.27;;;13.10;99.90;;;;;;5036219;28;20253;-79
2022/03/17 10:24:52;;;;;;;23.00;19.98;;;13.30;99.90;;;;;;5032090;28;20300;-79
2022/03/17 10:27:40;;;;;;;21.85;18.67;;;13.50;99.90;;;;;;5035333;28;20206;-81
2022/03/17 10:30:10;;;;;;;20.73;18.73;;;13.60;99.90;;;;;;5035048;28;20364;-82
2022/03/17 10:32:38;;;;;;;23.00;19.02;;;13.60;99.90;;;;;;5035839;28;20237;-81
2022/03/17 10:35:08;;;;;;;19.73;17.27;;;13.80;99.90;;;;;;5034741;28;20190;-81
2022/03/17 10:37:38;;;;;;;19.20;17.20;;;13.90;99.90;;;;;;5035343;28;20229;-77
2022/03/17 10:40:11;;;;;;;20.52;15.07;;;14.10;99.90;;;;;;5034196;28;20241;-80
2022/03/17 10:42:41;;;;;;;16.83;15.05;;;14.30;99.90;;;;;;5035237;28;20222;-80
2022/03/17 10:45:10;;;;;;;18.75;16.02;;;14.50;99.90;;;;;;5033395;28;20246;-80
2022/03/17 10:47:40;;;;;;;18.20;16.23;;;14.50;99.50;;;;;;5034978;28;20206;-80
2022/03/17 10:50:11;;;;;;;19.52;16.83;;;14.40;99.10;;;;;;5036014;28;20203;-80
2022/03/17 10:52:47;;;;;;;15.40;13.90;;;14.40;99.90;;;;;;5026743;28;20210;-72
2022/03/17 10:55:19;;;;;;;17.42;15.75;;;14.70;99.30;;;;;;5034984;28;20290;-73
2022/03/17 10:57:49;;;;;;;18.70;16.90;;;15.00;96.50;;;;;;5035177;28;20245;-72
2022/03/17 11:00:23;;;;;;;16.88;15.27;;;15.30;95.40;;;;;;5034556;28;20202;-72
2022/03/17 11:02:57;;;;;;;18.17;15.85;;;15.70;96.20;;;;;;5034295;28;20270;-85
2022/03/17 11:05:28;;;;;;;20.30;16.83;;;16.20;93.00;;;;;;5033909;28;20218;-85
2022/03/17 11:07:58;;;;;;;17.58;15.85;;;16.40;91.90;;;;;;5032434;28;20210;-85
2022/03/17 11:10:27;;;;;;;17.00;15.25;;;16.50;90.40;;;;;;5033793;28;20222;-86
2022/03/17 11:12:57;;;;;;;16.25;14.63;;;16.80;87.60;;;;;;5034775;28;20202;-84
2022/03/17 11:15:27;;;;;;;17.23;15.20;;;17.20;87.50;;;;;;5034818;28;20194;-84
2022/03/17 11:18:02;;;;;;;15.52;14.02;;;17.90;83.20;;;;;;5054774;28;20260;-84
2022/03/17 11:20:34;;;;;;;20.23;14.55;;;18.50;76.00;;;;;;5054545;28;20233;-84
2022/03/17 11:23:15;;;;;;;14.68;13.25;;;18.60;69.50;;;;;;5040499;28;20229;-85
2022/03/17 11:25:53;;;;;;;15.68;13.48;;;18.40;66.50;;;;;;5032461;28;20210;-84
2022/03/17 11:28:33;;;;;;;15.23;13.05;;;18.60;66.00;;;;;;5034209;28;20210;-83
2022/03/17 11:31:03;;;;;;;19.70;12.13;;;18.60;62.80;;;;;;5014844;28;20231;-85
2022/03/17 11:33:33;;;;;;;13.35;11.88;;;18.50;58.90;;;;;;5023368;28;20248;-84
2022/03/17 11:36:19;;;;;;;12.55;11.18;;;18.40;58.60;;;;;;5034205;28;20207;-86
2022/03/17 11:39:06;;;;;;;9.05;8.18;;;18.50;56.40;;;;;;5034762;28;20294;-84
2022/03/17 11:41:42;;;;;;;9.77;8.75;;;18.60;52.70;;;;;;5034169;28;20226;-85
2022/03/17 11:44:13;;;;;;;11.25;9.00;;;18.70;49.90;;;;;;5034254;28;20232;-86
2022/03/17 11:46:45;;;;;;;10.50;9.45;;;18.90;49.80;;;;;;5033744;28;20273;-86
2022/03/17 11:49:23;;;;;;;11.30;10.23;;;18.50;49.40;;;;;;5034098;28;20206;-84
2022/03/17 11:52:07;;;;;;;15.10;11.02;;;18.60;51.10;;;;;;5033432;28;20276;-81
2022/03/17 11:54:35;;;;;;;10.75;9.65;;;18.70;52.60;;;;;;5032839;28;20214;-81
2022/03/17 11:57:06;;;;;;;12.73;10.23;;;19.10;52.60;;;;;;5029238;28;20210;-83
2022/03/17 11:59:52;;;;;;;12.57;10.55;;;19.10;52.50;;;;;;5050603;28;20202;-82
2022/03/17 12:02:28;;;;;;;16.33;10.32;;;19.10;51.30;;;;;;5032191;28;20312;-83
2022/03/17 12:04:57;;;;;;;13.18;10.10;;;18.40;51.20;;;;;;5032843;28;20210;-85
2022/03/17 12:07:25;;;;;;;11.43;10.23;;;17.90;51.60;;;;;;5033279;28;20199;-84
2022/03/17 12:09:55;;;;;;;13.82;11.18;;;17.80;52.60;;;;;;5032739;28;20305;-83
2022/03/17 12:12:25;;;;;;;12.18;10.10;;;17.90;53.00;;;;;;5032866;28;20253;-84
2022/03/17 12:14:58;;;;;;;10.63;9.55;;;18.20;51.80;;;;;;5032542;28;20210;-83
2022/03/17 12:17:27;;;;;;;10.77;9.70;;;18.50;51.60;;;;;;5033272;28;20264;-83
2022/03/17 12:20:08;;;;;;;14.55;9.13;;;18.40;51.00;;;;;;5032355;28;20281;-83
2022/03/17 12:22:41;;;;;;;11.23;9.55;;;18.70;51.50;;;;;;5032478;28;20202;-83
2022/03/17 12:25:18;;;;;;;11.18;9.95;;;18.70;49.50;;;;;;5032627;28;20226;-84
2022/03/17 12:27:51;;;;;;;11.05;9.55;;;18.40;49.80;;;;;;5032554;28;20210;-84
2022/03/17 12:30:25;;;;;;;11.32;10.13;;;18.30;51.20;;;;;;5031877;28;20233;-84
2022/03/17 12:32:55;;;;;;;17.25;11.07;;;18.70;50.50;;;;;;5032957;28;20206;-83
2022/03/17 12:35:25;;;;;;;10.73;9.68;;;19.00;50.20;;;;;;5032188;28;20190;-84
2022/03/17 12:38:00;;;;;;;13.85;9.77;;;19.10;49.90;;;;;;5032082;28;20233;-84
2022/03/17 12:40:33;;;;;;;10.10;9.23;;;19.20;50.10;;;;;;5033105;28;20253;-83
2022/03/17 12:43:13;;;;;;;15.48;10.48;;;19.20;49.30;;;;;;5033564;28;20229;-81
2022/03/17 12:45:43;;;;;;;10.63;9.65;;;19.00;48.40;;;;;;5033124;28;20222;-81
2022/03/17 12:48:16;;;;;;;11.20;9.60;;;19.10;48.60;;;;;;5033374;28;20198;-83
2022/03/17 12:50:53;;;;;;;14.05;9.27;;;19.20;49.00;;;;;;5032738;28;20290;-82
2022/03/17 12:53:27;;;;;;;10.98;9.68;;;19.30;48.70;;;;;;5033174;28;20301;-84
2022/03/17 12:55:56;;;;;;;9.63;8.65;;;19.30;49.40;;;;;;5033623;28;20202;-84
2022/03/17 12:58:25;;;;;;;11.48;9.95;;;19.30;47.70;;;;;;5032961;28;20233;-85
2022/03/17 13:00:54;;;;;;;11.77;9.38;;;19.30;47.40;;;;;;5037444;28;20257;-85
2022/03/17 13:03:25;;;;;;;12.07;8.90;;;19.20;45.70;;;;;;5033829;28;20211;-85
2022/03/17 13:08:41;;;;;;;11.18;10.07;;;19.30;45.70;;;;;;5033385;28;20210;-83
2022/03/17 13:16:58;;;;;;;10.27;8.93;;;19.50;45.10;;;;;;5031315;28;20297;-82
2022/03/17 13:19:26;;;;;;;10.88;9.77;;;19.50;44.50;;;;;;5040380;28;20206;-78